Time,TemperatureF,DewpointF,PressureIn,WindDirection,WindDirectionDegrees,WindSpeedMPH,WindSpeedGustMPH,Humidity,HourlyPrecipIn,Conditions,Clouds,dailyrainin,SolarRadiationWatts/m^2,SoftwareType,DateUTC
2013-03-01 00:07:00,46.6,15.6,29.97,NNE,22,0.0,0.0,14,0.00,,,-99.99,0.0,Linux-Irox,2013-03-01 08:07:00,
2013-03-01 00:17:00,46.4,15.4,29.97,NNE,22,0.0,0.0,14,0.00,,,-99.99,0.0,Linux-Irox,2013-03-01 08:17:00,
2013-03-01 00:27:00,46.2,15.6,29.95,NNE,22,0.0,0.0,15,0.00,,,-99.99,0.0,Linux-Irox,2013-03-01 08:27:00,
2013-03-01 00:37:00,46.2,15.6,29.95,North,0,0.0,0.0,15,0.00,,,-99.99,0.0,Linux-Irox,2013-03-01 08:37:00,
2013-03-01 00:47:00,46.0,15.4,29.95,NE,45,0.0,0.0,15,0.00,,,-99.99,0.0,Linux-Irox,2013-03-01 08:47:00,
2013-03-01 00:57:00,45.9,15.3,29.95,East,90,0.0,0.0,15,0.00,,,-99.99,0.0,Linux-Irox,2013-03-01 08:57:00,
2013-03-01 01:07:00,46.0,16.2,29.96,ENE,67,0.0,0.0,17,0.00,,,-99.99,0.0,Linux-Irox,2013-03-01 09:07:00,
2013-03-01 01:17:00,45.9,16.3,29.96,NNE,22,0.0,0.0,18,0.00,,,-99.99,0.0,Linux-Irox,2013-03-01 09:17:00,
2013-03-01 01:27:00,45.9,16.3,29.97,NNE,22,0.0,0.0,18,0.00,,,-99.99,0.0,Linux-Irox,2013-03-01 09:27:00,
2013-03-01 01:37:00,45.5,16.0,29.97,NE,45,0.0,0.0,18,0.00,,,-99.99,0.0,Linux-Irox,2013-03-01 09:37:00,
2013-03-01 01:47:00,45.1,15.6,29.97,NE,45,0.0,0.0,18,0.00,,,-99.99,0.0,Linux-Irox,2013-03-01 09:47:00,
2013-03-01 01:57:00,45.1,16.3,29.97,NE,45,0.0,0.0,20,0.00,,,-99.99,0.0,Linux-Irox,2013-03-01 09:57:00,
2013-03-01 02:07:00,45.1,16.3,29.96,NNE,22,0.0,0.0,20,0.00,,,-99.99,0.0,Linux-Irox,2013-03-01 10:07:00,
2013-03-01 02:17:00,45.0,16.2,29.96,NNE,22,0.0,0.0,20,0.00,,,-99.99,0.0,Linux-Irox,2013-03-01 10:17:00,
2013-03-01 02:27:00,45.0,16.5,29.96,NNW,337,0.0,0.0,21,0.00,,,-99.99,0.0,Linux-Irox,2013-03-01 10:27:00,
2013-03-01 02:37:00,45.1,16.7,29.96,NNE,22,0.0,0.0,21,0.00,,,-99.99,0.0,Linux-Irox,2013-03-01 10:37:00,
2013-03-01 02:47:00,44.8,16.0,29.95,NNE,22,0.0,0.0,20,0.00,,,-99.99,0.0,Linux-Irox,2013-03-01 10:47:00,
2013-03-01 02:57:00,44.8,16.0,29.95,WSW,247,0.0,0.0,20,0.00,,,-99.99,0.0,Linux-Irox,2013-03-01 10:57:00,
2013-03-01 03:07:00,45.9,17.1,29.94,North,0,0.0,0.0,20,0.00,,,-99.99,0.0,Linux-Irox,2013-03-01 11:07:00,
2013-03-01 03:17:00,45.1,15.6,29.94,NW,315,0.0,0.0,18,0.00,,,-99.99,0.0,Linux-Irox,2013-03-01 11:17:00,
2013-03-01 03:27:00,45.0,15.4,29.96,North,0,0.0,0.0,18,0.00,,,-99.99,0.0,Linux-Irox,2013-03-01 11:27:00,
2013-03-01 03:37:00,45.0,15.4,29.96,NE,45,0.0,0.0,18,0.00,,,-99.99,0.0,Linux-Irox,2013-03-01 11:37:00,
2013-03-01 03:47:00,44.6,15.1,29.94,West,270,0.0,0.0,18,0.00,,,-99.99,0.0,Linux-Irox,2013-03-01 11:47:00,
2013-03-01 03:57:00,45.0,16.2,29.94,ENE,67,0.0,0.0,20,0.00,,,-99.99,0.0,Linux-Irox,2013-03-01 11:57:00,
2013-03-01 04:07:00,44.6,15.8,29.94,NNE,22,0.0,0.0,20,0.00,,,-99.99,0.0,Linux-Irox,2013-03-01 12:07:00,
2013-03-01 04:17:00,44.2,15.8,29.94,NNE,22,0.0,0.0,21,0.00,,,-99.99,0.0,Linux-Irox,2013-03-01 12:17:00,
2013-03-01 04:27:00,44.2,15.8,29.94,NE,45,0.0,0.0,21,0.00,,,-99.99,0.0,Linux-Irox,2013-03-01 12:27:00,
2013-03-01 04:37:00,43.9,15.4,29.94,East,90,0.0,0.0,21,0.00,,,-99.99,0.0,Linux-Irox,2013-03-01 12:37:00,
2013-03-01 04:47:00,43.5,15.1,29.94,NNE,22,0.0,0.0,21,0.00,,,-99.99,0.0,Linux-Irox,2013-03-01 12:47:00,
2013-03-01 04:57:00,43.3,14.9,29.94,NNE,22,0.0,0.0,21,0.00,,,-99.99,0.0,Linux-Irox,2013-03-01 12:57:00,
2013-03-01 05:07:00,43.3,14.9,29.93,NNE,22,0.0,0.0,21,0.00,,,-99.99,0.0,Linux-Irox,2013-03-01 13:07:00,
2013-03-01 05:17:00,43.0,14.5,29.93,ENE,67,0.0,0.0,21,0.00,,,-99.99,0.0,Linux-Irox,2013-03-01 13:17:00,
2013-03-01 05:27:00,43.0,14.5,29.94,ESE,112,0.0,0.0,21,0.00,,,-99.99,0.0,Linux-Irox,2013-03-01 13:27:00,
2013-03-01 05:37:00,42.8,14.7,29.94,NW,315,0.0,0.0,22,0.00,,,-99.99,0.0,Linux-Irox,2013-03-01 13:37:00,
2013-03-01 05:46:00,42.8,14.7,29.94,ENE,67,0.0,0.0,22,0.00,,,-99.99,0.0,Linux-Irox,2013-03-01 13:46:00,
2013-03-01 05:47:00,43.0,14.9,29.94,NE,45,0.0,0.0,22,0.00,,,-99.99,0.0,Linux-Irox,2013-03-01 13:47:00,
2013-03-01 05:57:00,43.0,14.9,29.94,NE,45,0.0,0.0,22,0.00,,,-99.99,0.0,Linux-Irox,2013-03-01 13:57:00,
2013-03-01 06:01:00,43.3,15.3,29.95,NNE,22,0.0,0.0,22,0.00,,,-99.99,0.0,Linux-Irox,2013-03-01 14:01:00,
2013-03-01 06:07:00,43.3,15.3,29.95,NNE,22,0.0,0.0,22,0.00,,,-99.99,0.0,Linux-Irox,2013-03-01 14:07:00,
2013-03-01 06:16:00,42.4,14.0,29.95,NNE,22,0.0,0.0,21,0.00,,,-99.99,0.0,Linux-Irox,2013-03-01 14:16:00,
2013-03-01 06:17:00,42.4,14.0,29.95,North,0,0.0,0.0,21,0.00,,,-99.99,0.0,Linux-Irox,2013-03-01 14:17:00,
2013-03-01 06:27:00,42.8,14.7,29.95,NNE,22,0.0,0.0,22,0.00,,,-99.99,0.0,Linux-Irox,2013-03-01 14:27:00,
2013-03-01 06:31:00,43.0,14.9,29.95,ENE,67,0.0,0.0,22,0.00,,,-99.99,0.0,Linux-Irox,2013-03-01 14:31:00,
2013-03-01 06:37:00,43.3,15.3,29.95,NNE,22,0.0,0.0,22,0.00,,,-99.99,0.0,Linux-Irox,2013-03-01 14:37:00,
2013-03-01 06:46:00,43.3,14.9,29.95,WSW,247,0.0,0.0,21,0.00,,,-99.99,0.0,Linux-Irox,2013-03-01 14:46:00,
2013-03-01 06:47:00,43.2,14.7,29.95,WSW,247,0.0,0.0,21,0.00,,,-99.99,0.0,Linux-Irox,2013-03-01 14:47:00,
2013-03-01 06:57:00,44.2,15.8,29.95,ENE,67,0.0,0.9,21,0.00,,,-99.99,0.0,Linux-Irox,2013-03-01 14:57:00,
2013-03-01 07:01:00,45.1,16.7,29.95,East,90,0.9,4.0,21,0.00,,,-99.99,0.0,Linux-Irox,2013-03-01 15:01:00,
2013-03-01 07:07:00,46.2,16.7,29.95,ESE,112,0.9,2.7,18,0.00,,,-99.99,0.0,Linux-Irox,2013-03-01 15:07:00,
2013-03-01 07:16:00,46.6,16.7,29.95,ENE,67,0.9,2.7,17,0.00,,,-99.99,0.0,Linux-Irox,2013-03-01 15:16:00,
2013-03-01 07:17:00,46.9,16.7,29.95,ENE,67,0.4,2.5,16,0.00,,,-99.99,0.0,Linux-Irox,2013-03-01 15:17:00,
2013-03-01 07:27:00,48.9,17.2,29.95,ESE,112,0.9,1.6,12,0.00,,,-99.99,0.0,Linux-Irox,2013-03-01 15:27:00,
2013-03-01 07:31:00,49.3,17.6,29.95,ENE,67,2.7,3.8,12,0.00,,,-99.99,0.0,Linux-Irox,2013-03-01 15:31:00,
2013-03-01 07:37:00,50.4,18.3,29.95,ESE,112,1.8,2.9,11,0.00,,,-99.99,0.0,Linux-Irox,2013-03-01 15:37:00,
2013-03-01 07:46:00,51.8,19.4,29.94,East,90,3.6,6.0,10,0.00,,,-99.99,0.0,Linux-Irox,2013-03-01 15:46:00,
2013-03-01 07:47:00,51.8,19.4,29.94,East,90,1.6,1.8,10,0.00,,,-99.99,0.0,Linux-Irox,2013-03-01 15:47:00,
2013-03-01 07:57:00,52.9,19.8,29.94,NE,45,1.6,2.0,8,0.00,,,-99.99,0.0,Linux-Irox,2013-03-01 15:57:00,
2013-03-01 08:01:00,53.6,19.8,29.95,East,90,3.1,0.0,6,0.00,,,-99.99,0.0,Linux-Irox,2013-03-01 16:01:00,
2013-03-01 08:16:00,55.8,21.6,29.95,ESE,112,0.0,0.0,5,0.00,,,-99.99,0.0,Linux-Irox,2013-03-01 16:16:00,
2013-03-01 08:31:00,57.0,22.8,29.93,NNE,22,0.4,3.6,5,0.00,,,-99.99,0.0,Linux-Irox,2013-03-01 16:31:00,
2013-03-01 08:46:00,59.9,25.7,29.94,East,90,1.6,2.7,5,0.00,,,-99.99,0.0,Linux-Irox,2013-03-01 16:46:00,
2013-03-01 09:01:00,61.7,27.5,29.92,NNE,22,2.0,2.9,5,0.00,,,-99.99,0.0,Linux-Irox,2013-03-01 17:01:00,
2013-03-01 09:16:00,64.4,30.2,29.92,South,180,0.9,0.0,5,0.00,,,-99.99,0.0,Linux-Irox,2013-03-01 17:16:00,
2013-03-01 09:31:00,65.5,31.3,29.92,ESE,112,3.6,0.0,5,0.00,,,-99.99,0.0,Linux-Irox,2013-03-01 17:31:00,
2013-03-01 09:46:00,65.3,31.1,29.92,ESE,112,1.1,4.9,5,0.00,,,-99.99,0.0,Linux-Irox,2013-03-01 17:46:00,
2013-03-01 10:01:00,65.8,31.6,29.92,West,270,1.6,0.0,5,0.00,,,-99.99,0.0,Linux-Irox,2013-03-01 18:01:00,
2013-03-01 10:16:00,64.8,30.6,29.92,NNE,22,1.6,4.0,5,0.00,,,-99.99,0.0,Linux-Irox,2013-03-01 18:16:00,
2013-03-01 10:31:00,66.2,32.0,29.91,NNE,22,2.0,3.3,5,0.00,,,-99.99,0.0,Linux-Irox,2013-03-01 18:31:00,
2013-03-01 10:46:00,66.2,32.0,29.91,ENE,67,2.7,4.7,5,0.00,,,-99.99,0.0,Linux-Irox,2013-03-01 18:46:00,
2013-03-01 11:01:00,66.7,32.5,29.90,WNW,292,3.1,0.0,5,0.00,,,-99.99,0.0,Linux-Irox,2013-03-01 19:01:00,
2013-03-01 11:16:00,66.2,32.0,29.90,ENE,67,2.2,0.0,5,0.00,,,-99.99,0.0,Linux-Irox,2013-03-01 19:16:00,
2013-03-01 11:31:00,66.4,32.2,29.90,NW,315,1.6,3.8,5,0.00,,,-99.99,0.0,Linux-Irox,2013-03-01 19:31:00,
2013-03-01 11:46:00,67.1,32.9,29.91,NNE,22,1.8,3.8,5,0.00,,,-99.99,0.0,Linux-Irox,2013-03-01 19:46:00,
2013-03-01 12:01:00,68.2,34.0,29.90,WSW,247,2.7,2.7,5,0.00,,,-99.99,0.0,Linux-Irox,2013-03-01 20:01:00,
2013-03-01 12:16:00,68.0,33.8,29.90,East,90,1.6,0.0,5,0.00,,,-99.99,0.0,Linux-Irox,2013-03-01 20:16:00,
2013-03-01 12:31:00,67.6,33.4,29.88,ESE,112,3.3,9.1,5,0.00,,,-99.99,0.0,Linux-Irox,2013-03-01 20:31:00,
2013-03-01 12:46:00,69.6,35.4,29.87,West,270,4.2,8.5,5,0.00,,,-99.99,0.0,Linux-Irox,2013-03-01 20:46:00,
2013-03-01 13:01:00,69.4,35.2,29.86,SW,225,2.5,2.5,5,0.00,,,-99.99,0.0,Linux-Irox,2013-03-01 21:01:00,
2013-03-01 13:16:00,69.6,35.4,29.86,ENE,67,5.1,5.1,5,0.00,,,-99.99,0.0,Linux-Irox,2013-03-01 21:16:00,
2013-03-01 13:31:00,69.6,35.4,29.85,West,270,6.0,6.0,5,0.00,,,-99.99,0.0,Linux-Irox,2013-03-01 21:31:00,
2013-03-01 13:46:00,70.5,36.3,29.84,South,180,5.6,5.6,5,0.00,,,-99.99,0.0,Linux-Irox,2013-03-01 21:46:00,
2013-03-01 14:01:00,70.9,36.7,29.84,West,270,6.5,9.8,5,0.00,,,-99.99,0.0,Linux-Irox,2013-03-01 22:01:00,
2013-03-01 14:16:00,70.9,36.7,29.84,NW,315,6.5,7.8,5,0.00,,,-99.99,0.0,Linux-Irox,2013-03-01 22:16:00,
2013-03-01 14:31:00,70.0,35.8,29.83,West,270,7.1,7.1,5,0.00,,,-99.99,0.0,Linux-Irox,2013-03-01 22:31:00,
2013-03-01 14:46:00,69.4,35.2,29.83,WSW,247,6.0,7.8,5,0.00,,,-99.99,0.0,Linux-Irox,2013-03-01 22:46:00,
2013-03-01 15:01:00,68.9,34.7,29.78,SW,225,6.9,8.3,5,0.00,,,-99.99,0.0,Linux-Irox,2013-03-01 23:01:00,
2013-03-01 15:16:00,68.2,34.0,29.78,WSW,247,8.5,8.5,5,0.00,,,-99.99,0.0,Linux-Irox,2013-03-01 23:16:00,
2013-03-01 15:31:00,67.3,33.1,29.80,West,270,6.0,13.2,5,0.00,,,-99.99,0.0,Linux-Irox,2013-03-01 23:31:00,
2013-03-01 15:46:00,66.2,32.0,29.81,West,270,6.9,9.1,5,0.00,,,-99.99,0.0,Linux-Irox,2013-03-01 23:46:00,
2013-03-01 16:01:00,65.7,31.5,29.81,NW,315,6.2,6.5,5,0.00,,,-99.99,0.0,Linux-Irox,2013-03-02 00:01:00,
2013-03-01 16:16:00,65.3,31.1,29.81,West,270,4.7,5.1,5,0.00,,,-99.99,0.0,Linux-Irox,2013-03-02 00:16:00,
2013-03-01 16:31:00,64.8,30.6,29.82,WNW,292,3.8,3.8,5,0.00,,,-99.99,0.0,Linux-Irox,2013-03-02 00:31:00,
2013-03-01 16:46:00,63.9,29.7,29.82,WSW,247,3.6,3.6,5,0.00,,,-99.99,0.0,Linux-Irox,2013-03-02 00:46:00,
2013-03-01 17:01:00,63.0,28.8,29.80,WSW,247,3.3,3.3,5,0.00,,,-99.99,0.0,Linux-Irox,2013-03-02 01:01:00,
2013-03-01 17:16:00,61.9,27.7,29.80,NW,315,0.0,0.0,5,0.00,,,-99.99,0.0,Linux-Irox,2013-03-02 01:16:00,
2013-03-01 17:31:00,60.6,26.4,29.82,NNE,22,0.0,0.0,5,0.00,,,-99.99,0.0,Linux-Irox,2013-03-02 01:31:00,
2013-03-01 17:46:00,59.5,25.3,29.82,NNE,22,0.0,0.0,5,0.00,,,-99.99,0.0,Linux-Irox,2013-03-02 01:46:00,
2013-03-01 18:01:00,57.7,23.5,29.82,NNE,22,0.0,0.0,5,0.00,,,-99.99,0.0,Linux-Irox,2013-03-02 02:01:00,
2013-03-01 18:16:00,56.8,22.6,29.82,NNE,22,0.0,0.0,5,0.00,,,-99.99,0.0,Linux-Irox,2013-03-02 02:16:00,
2013-03-01 18:31:00,55.9,21.7,29.82,NE,45,0.0,0.0,5,0.00,,,-99.99,0.0,Linux-Irox,2013-03-02 02:31:00,
2013-03-01 18:46:00,54.9,20.7,29.83,NW,315,0.0,0.0,5,0.00,,,-99.99,0.0,Linux-Irox,2013-03-02 02:46:00,
2013-03-01 19:01:00,54.5,20.7,29.84,NNE,22,0.0,0.0,6,0.00,,,-99.99,0.0,Linux-Irox,2013-03-02 03:01:00,
2013-03-01 19:16:00,54.3,20.5,29.84,North,0,0.0,0.0,6,0.00,,,-99.99,0.0,Linux-Irox,2013-03-02 03:16:00,
2013-03-01 19:31:00,53.8,21.4,29.83,ENE,67,0.0,0.0,10,0.00,,,-99.99,0.0,Linux-Irox,2013-03-02 03:31:00,
2013-03-01 19:46:00,53.8,21.4,29.83,ENE,67,0.0,0.0,10,0.00,,,-99.99,0.0,Linux-Irox,2013-03-02 03:46:00,
2013-03-01 20:01:00,53.6,21.2,29.83,NNE,22,0.0,0.0,10,0.00,,,-99.99,0.0,Linux-Irox,2013-03-02 04:01:00,
2013-03-01 20:16:00,53.6,21.2,29.83,North,0,0.0,0.0,10,0.00,,,-99.99,0.0,Linux-Irox,2013-03-02 04:16:00,
2013-03-01 20:31:00,53.6,21.2,29.83,NNE,22,0.0,0.0,10,0.00,,,-99.99,0.0,Linux-Irox,2013-03-02 04:31:00,
2013-03-01 20:46:00,52.9,21.2,29.83,NNE,22,0.0,0.0,12,0.00,,,-99.99,0.0,Linux-Irox,2013-03-02 04:46:00,
2013-03-01 21:01:00,52.7,21.0,29.84,NNE,22,0.0,0.0,12,0.00,,,-99.99,0.0,Linux-Irox,2013-03-02 05:01:00,